Time;durP1;ratioP1;P1;durP2;ratioP2;P2;SDS_P1;SDS_P2;PMS_P1;PMS_P2;Temp;Humidity;BMP_temperature;BMP_pressure;BME280_temperature;BME280_humidity;BME280_pressure;Samples;Min_cycle;Max_cycle;Signal;HPM_P1;HPM_P2
2023/04/13 00:02:12;;;;;;;4.53;0.52;;;6.80;99.90;;;;;;7312720;32;20287;-56
2023/04/13 00:06:13;;;;;;;1.35;0.45;;;6.80;99.90;;;;;;7298277;32;20169;-54
2023/04/13 00:10:17;;;;;;;1.55;0.55;;;6.80;99.90;;;;;;7301095;32;20226;-55
2023/04/13 00:14:19;;;;;;;5.55;0.60;;;6.90;99.90;;;;;;7304959;32;20747;-54
2023/04/13 00:18:22;;;;;;;2.78;0.70;;;6.90;99.90;;;;;;7308580;32;20217;-55
2023/04/13 00:22:28;;;;;;;3.20;0.60;;;6.90;99.90;;;;;;7296814;32;20127;-55
2023/04/13 00:26:30;;;;;;;2.97;0.68;;;6.90;99.90;;;;;;7298429;32;20217;-54
2023/04/13 00:30:32;;;;;;;3.03;0.50;;;6.90;99.90;;;;;;7296637;32;20183;-55
2023/04/13 00:34:33;;;;;;;1.52;0.50;;;6.90;99.90;;;;;;7304914;32;20186;-55
2023/04/13 00:38:36;;;;;;;3.20;0.73;;;6.70;99.90;;;;;;7298652;32;20565;-55
2023/04/13 00:42:38;;;;;;;0.88;0.37;;;6.50;99.90;;;;;;7308718;32;20190;-55
2023/04/13 00:46:41;;;;;;;2.78;0.45;;;6.50;99.90;;;;;;7297358;32;20366;-55
2023/04/13 00:50:44;;;;;;;3.12;0.70;;;6.50;99.90;;;;;;7312905;32;20095;-55
2023/04/13 00:54:47;;;;;;;2.60;0.32;;;6.50;99.90;;;;;;7303412;32;20099;-55
2023/04/13 00:58:49;;;;;;;2.58;0.50;;;6.50;99.90;;;;;;7303500;32;20104;-54
2023/04/13 01:02:51;;;;;;;3.50;0.43;;;6.40;99.90;;;;;;7303646;32;20092;-55
2023/04/13 01:07:11;;;;;;;2.40;0.50;;;6.40;99.90;;;;;;7315542;32;20453;-55
2023/04/13 01:11:26;;;;;;;4.18;0.60;;;6.40;99.90;;;;;;7297444;32;20124;-55
2023/04/13 01:15:35;;;;;;;2.10;0.30;;;6.40;99.90;;;;;;7296332;32;20708;-55
2023/04/13 01:19:56;;;;;;;0.95;0.50;;;6.40;99.90;;;;;;7302760;32;20119;-55
2023/04/13 01:24:43;;;;;;;2.22;0.50;;;6.50;99.90;;;;;;7304841;32;20232;-55
2023/04/13 01:28:46;;;;;;;3.33;0.60;;;6.50;99.90;;;;;;7292535;32;20088;-55
2023/04/13 01:32:50;;;;;;;1.02;0.47;;;6.60;99.90;;;;;;7303700;32;20103;-55
2023/04/13 01:36:52;;;;;;;3.33;0.40;;;6.60;99.90;;;;;;7305115;32;20333;-55
2023/04/13 01:40:54;;;;;;;2.53;0.32;;;6.70;99.90;;;;;;7310440;32;20119;-55
2023/04/13 01:44:56;;;;;;;3.65;0.50;;;6.80;99.90;;;;;;7313938;32;20304;-55
2023/04/13 01:49:09;;;;;;;1.42;0.43;;;6.80;99.90;;;;;;7309708;32;20187;-55
2023/04/13 01:53:16;;;;;;;1.87;0.45;;;6.90;99.90;;;;;;7303965;32;20257;-55
2023/04/13 01:57:20;;;;;;;3.37;0.50;;;6.90;99.90;;;;;;7303944;32;20108;-55
2023/04/13 02:01:22;;;;;;;2.87;0.60;;;6.90;99.90;;;;;;7309200;32;20139;-55
2023/04/13 02:05:26;;;;;;;1.05;0.30;;;6.90;99.90;;;;;;7316634;32;20126;-55
2023/04/13 02:09:27;;;;;;;2.05;0.40;;;6.90;99.90;;;;;;7310093;32;20157;-55
2023/04/13 02:13:29;;;;;;;3.85;0.50;;;6.90;99.90;;;;;;7302479;32;20107;-55
2023/04/13 02:17:31;;;;;;;5.25;0.50;;;7.00;99.90;;;;;;7297973;32;20130;-55
2023/04/13 02:21:33;;;;;;;3.22;0.50;;;7.00;99.90;;;;;;7300241;32;20108;-54
2023/04/13 02:25:36;;;;;;;2.60;0.90;;;7.10;99.90;;;;;;7310454;32;20725;-55
2023/04/13 02:29:38;;;;;;;2.15;0.40;;;7.10;99.90;;;;;;7301562;32;20142;-55
2023/04/13 02:33:39;;;;;;;3.97;0.50;;;7.10;99.90;;;;;;7299471;32;20201;-55
2023/04/13 02:37:41;;;;;;;2.50;0.40;;;7.10;99.90;;;;;;7293319;32;20299;-55
2023/04/13 02:41:43;;;;;;;2.47;0.35;;;7.10;99.90;;;;;;7313181;32;20582;-55
2023/04/13 02:45:45;;;;;;;1.30;0.30;;;7.10;99.90;;;;;;7310558;32;20221;-56
2023/04/13 02:49:46;;;;;;;3.33;0.50;;;7.10;99.90;;;;;;7300685;32;20238;-55
2023/04/13 02:53:48;;;;;;;3.62;0.50;;;7.10;99.90;;;;;;7299796;32;20231;-55
2023/04/13 02:57:50;;;;;;;0.95;0.40;;;7.10;99.90;;;;;;7300793;32;20108;-56
2023/04/13 03:01:52;;;;;;;1.98;0.50;;;7.10;99.90;;;;;;7306958;32;20134;-55
2023/04/13 03:05:54;;;;;;;3.45;0.60;;;7.10;99.90;;;;;;7311369;32;20188;-55
2023/04/13 03:09:56;;;;;;;4.57;0.68;;;7.10;99.90;;;;;;7311003;32;20116;-56
2023/04/13 03:13:59;;;;;;;4.00;0.40;;;7.20;99.90;;;;;;7312941;32;20513;-55
2023/04/13 03:18:03;;;;;;;3.33;0.47;;;7.30;99.90;;;;;;7302416;32;20134;-55
2023/04/13 03:22:04;;;;;;;1.70;0.40;;;7.30;99.90;;;;;;7305639;32;20326;-55
2023/04/13 03:26:06;;;;;;;1.65;0.40;;;7.30;99.90;;;;;;7304988;32;21065;-55
2023/04/13 03:30:08;;;;;;;2.00;0.30;;;7.40;99.90;;;;;;7305468;32;20120;-55
2023/04/13 03:34:10;;;;;;;2.90;0.60;;;7.40;99.90;;;;;;7301265;32;20722;-55
2023/04/13 03:38:12;;;;;;;2.53;0.50;;;7.40;99.90;;;;;;7302302;32;20485;-55
2023/04/13 03:42:13;;;;;;;1.75;0.40;;;7.40;99.90;;;;;;7308613;32;20138;-55
2023/04/13 03:46:15;;;;;;;1.48;0.40;;;7.40;99.90;;;;;;7304057;32;20191;-56
2023/04/13 03:50:17;;;;;;;2.50;0.47;;;7.40;99.90;;;;;;7297435;32;20263;-56
2023/04/13 03:54:19;;;;;;;0.82;0.40;;;7.40;99.90;;;;;;7301582;32;20120;-55
2023/04/13 03:58:20;;;;;;;1.00;0.30;;;7.30;99.90;;;;;;7303906;32;20190;-55
2023/04/13 04:02:22;;;;;;;0.90;0.30;;;7.40;99.90;;;;;;7301086;32;20183;-56
2023/04/13 04:06:25;;;;;;;1.65;0.40;;;7.30;99.90;;;;;;7299616;32;20165;-56
2023/04/13 04:10:27;;;;;;;2.95;0.60;;;7.30;99.90;;;;;;7306338;32;20309;-55
2023/04/13 04:14:29;;;;;;;2.62;0.37;;;7.30;99.90;;;;;;7297616;32;20238;-55
2023/04/13 04:18:31;;;;;;;1.65;0.32;;;7.20;99.90;;;;;;7305215;32;20135;-55
2023/04/13 04:22:35;;;;;;;2.62;0.43;;;7.10;99.90;;;;;;7303866;32;20245;-55
2023/04/13 04:26:37;;;;;;;1.58;0.40;;;7.10;99.90;;;;;;7306507;32;20194;-55
2023/04/13 04:30:39;;;;;;;1.58;0.40;;;7.00;99.90;;;;;;7308393;32;20123;-54
2023/04/13 04:34:42;;;;;;;3.37;0.50;;;7.00;99.90;;;;;;7303492;32;20183;-56
2023/04/13 04:38:44;;;;;;;4.45;0.82;;;6.90;99.90;;;;;;7306257;32;20178;-56
2023/04/13 04:42:46;;;;;;;1.95;0.50;;;6.90;99.90;;;;;;7302407;32;20305;-55
2023/04/13 04:46:47;;;;;;;2.87;1.00;;;6.80;99.90;;;;;;7304678;32;20161;-58
2023/04/13 04:50:51;;;;;;;3.35;0.90;;;6.80;99.90;;;;;;7298903;32;20789;-57
2023/04/13 04:54:53;;;;;;;2.12;0.52;;;6.80;99.90;;;;;;7301298;32;20445;-56
2023/04/13 04:58:54;;;;;;;1.70;0.40;;;6.80;99.90;;;;;;7303271;32;20135;-56
2023/04/13 05:02:56;;;;;;;2.55;0.70;;;6.90;99.90;;;;;;7304743;32;20167;-57
2023/04/13 05:06:58;;;;;;;1.87;0.50;;;6.80;99.90;;;;;;7306374;32;20168;-56
2023/04/13 05:11:00;;;;;;;2.53;0.73;;;6.90;99.90;;;;;;7299485;32;20221;-57
2023/04/13 05:15:03;;;;;;;2.90;0.68;;;6.90;99.90;;;;;;7305885;32;20112;-57
2023/04/13 05:19:07;;;;;;;2.72;0.55;;;6.90;99.90;;;;;;7301974;32;20126;-56
2023/04/13 05:23:09;;;;;;;2.58;0.60;;;7.00;99.90;;;;;;7303887;32;20243;-57
2023/04/13 05:27:12;;;;;;;2.33;0.68;;;7.00;99.90;;;;;;7305682;32;20176;-56
2023/04/13 05:31:14;;;;;;;1.83;0.50;;;7.10;99.90;;;;;;7303117;32;20133;-57
2023/04/13 05:35:16;;;;;;;2.58;0.75;;;7.10;99.90;;;;;;7297614;32;20150;-57
2023/04/13 05:39:20;;;;;;;2.95;0.65;;;7.20;99.90;;;;;;7303749;32;20198;-56
2023/04/13 05:43:22;;;;;;;1.20;0.70;;;7.20;99.90;;;;;;7298867;32;20222;-56
2023/04/13 05:47:24;;;;;;;6.50;0.95;;;7.30;99.90;;;;;;7302989;32;20133;-55
2023/04/13 05:51:30;;;;;;;2.53;0.80;;;7.20;99.90;;;;;;7299512;32;20108;-57
2023/04/13 05:55:32;;;;;;;3.00;0.77;;;7.30;99.90;;;;;;7297160;32;20133;-56
2023/04/13 05:59:34;;;;;;;3.67;0.52;;;7.40;99.90;;;;;;7307120;32;20100;-56
2023/04/13 06:03:36;;;;;;;2.00;0.80;;;7.40;99.90;;;;;;7303171;32;20707;-56
2023/04/13 06:07:38;;;;;;;3.40;0.73;;;7.50;99.90;;;;;;7305495;32;20706;-56
2023/04/13 06:11:40;;;;;;;2.78;0.73;;;7.50;99.90;;;;;;7308705;32;20224;-56
2023/04/13 06:15:42;;;;;;;2.62;0.88;;;7.50;99.90;;;;;;7312015;32;20297;-56
2023/04/13 06:19:44;;;;;;;2.42;1.05;;;7.60;99.90;;;;;;7304409;32;20111;-56
2023/04/13 06:23:46;;;;;;;6.15;2.05;;;7.60;99.90;;;;;;7306287;32;20752;-55
2023/04/13 06:27:48;;;;;;;4.87;1.27;;;7.70;99.90;;;;;;7309259;32;20333;-56
2023/04/13 06:31:50;;;;;;;3.78;1.10;;;7.80;99.90;;;;;;7305142;32;20147;-55
2023/04/13 06:35:52;;;;;;;7.05;1.55;;;7.70;99.90;;;;;;7308914;32;20193;-56
2023/04/13 06:39:54;;;;;;;3.40;0.85;;;7.80;99.90;;;;;;7313992;32;20202;-56
2023/04/13 06:43:56;;;;;;;5.68;1.10;;;7.80;99.90;;;;;;7312293;32;20261;-57
2023/04/13 06:47:59;;;;;;;2.83;1.10;;;7.90;99.90;;;;;;7309853;32;20115;-57
2023/04/13 06:52:01;;;;;;;3.28;0.98;;;7.90;99.90;;;;;;7310508;32;20112;-58
2023/04/13 06:56:03;;;;;;;6.07;0.98;;;7.90;99.90;;;;;;7297477;32;20104;-57
2023/04/13 07:00:06;;;;;;;3.17;0.90;;;8.00;99.90;;;;;;7306924;32;20126;-56
2023/04/13 07:04:22;;;;;;;2.62;0.80;;;8.10;99.90;;;;;;7302298;32;20159;-57
2023/04/13 07:08:28;;;;;;;6.20;1.10;;;8.40;99.90;;;;;;7312452;32;20191;-56
2023/04/13 07:12:32;;;;;;;2.58;0.60;;;8.60;99.90;;;;;;7300450;32;20685;-56
2023/04/13 07:16:34;;;;;;;2.58;0.62;;;8.60;99.90;;;;;;7300556;32;20135;-56
2023/04/13 07:20:38;;;;;;;2.83;0.60;;;8.70;99.90;;;;;;7305805;32;20111;-56
2023/04/13 07:24:40;;;;;;;2.90;0.80;;;8.70;99.90;;;;;;7307999;32;20165;-56
2023/04/13 07:28:42;;;;;;;3.20;0.90;;;9.00;99.90;;;;;;7305895;32;20818;-57
2023/04/13 07:32:43;;;;;;;2.33;0.90;;;9.20;99.90;;;;;;7301914;32;20157;-56
2023/04/13 07:36:45;;;;;;;5.35;0.90;;;9.00;99.90;;;;;;7306849;32;20126;-57
2023/04/13 07:40:47;;;;;;;3.85;0.60;;;8.90;99.90;;;;;;7302793;32;20209;-56
2023/04/13 07:44:51;;;;;;;2.90;0.70;;;8.80;99.90;;;;;;7302361;32;20982;-56
2023/04/13 07:48:53;;;;;;;3.05;0.60;;;8.60;99.90;;;;;;7303539;32;20141;-56
2023/04/13 07:52:54;;;;;;;3.17;0.70;;;8.60;99.90;;;;;;7304924;32;20138;-56
2023/04/13 07:56:57;;;;;;;3.17;0.82;;;8.70;99.90;;;;;;7306373;32;20720;-56
2023/04/13 08:00:58;;;;;;;3.15;0.80;;;9.00;99.90;;;;;;7304995;32;20393;-59
2023/04/13 08:05:00;;;;;;;4.82;0.88;;;9.20;99.90;;;;;;7302084;32;20183;-56
2023/04/13 08:09:02;;;;;;;2.80;0.80;;;9.60;99.90;;;;;;7304723;32;20134;-55
2023/04/13 08:13:04;;;;;;;3.50;0.70;;;9.70;99.90;;;;;;7306806;32;20095;-56
2023/04/13 08:17:06;;;;;;;3.20;0.85;;;9.50;99.90;;;;;;7299755;32;20142;-56
2023/04/13 08:21:10;;;;;;;5.07;0.95;;;9.50;99.90;;;;;;7305131;32;20281;-57
2023/04/13 08:25:11;;;;;;;3.55;0.77;;;9.70;99.90;;;;;;7310240;32;20179;-56
2023/04/13 08:29:14;;;;;;;3.58;1.00;;;9.80;99.90;;;;;;7302809;32;20104;-57
2023/04/13 08:33:15;;;;;;;8.38;1.23;;;9.90;99.90;;;;;;7306149;32;20104;-56
2023/04/13 08:37:18;;;;;;;3.37;0.82;;;9.60;99.90;;;;;;7307141;32;20221;-56
2023/04/13 08:41:21;;;;;;;5.10;1.20;;;9.60;99.90;;;;;;7308884;32;20821;-56
2023/04/13 08:45:23;;;;;;;6.80;0.98;;;9.50;99.90;;;;;;7298447;32;22530;-56
2023/04/13 08:49:26;;;;;;;6.47;1.25;;;9.40;99.90;;;;;;7311270;32;20127;-56
2023/04/13 08:53:28;;;;;;;5.10;1.37;;;9.20;99.90;;;;;;7301002;32;20107;-56
2023/04/13 08:57:31;;;;;;;7.53;1.37;;;9.10;99.90;;;;;;7302951;32;20103;-56
2023/04/13 09:01:36;;;;;;;8.52;1.70;;;9.10;99.90;;;;;;7299261;32;20207;-56
2023/04/13 09:05:40;;;;;;;7.97;1.30;;;9.00;99.90;;;;;;7302129;32;20239;-56
2023/04/13 09:09:44;;;;;;;8.48;1.30;;;9.10;99.90;;;;;;7301682;32;20213;-56
2023/04/13 09:13:50;;;;;;;8.25;1.52;;;9.30;99.90;;;;;;7295184;32;20756;-55
2023/04/13 09:17:52;;;;;;;6.97;1.50;;;9.50;99.90;;;;;;7303027;32;20790;-55
2023/04/13 09:21:54;;;;;;;8.50;1.70;;;9.70;99.90;;;;;;7304317;32;20542;-56
2023/04/13 09:26:06;;;;;;;6.45;1.42;;;9.80;99.90;;;;;;7298184;32;20849;-58
2023/04/13 09:30:10;;;;;;;7.53;1.58;;;10.10;99.90;;;;;;7302047;32;20226;-56
2023/04/13 09:34:12;;;;;;;7.47;1.67;;;10.40;99.90;;;;;;7305241;32;20198;-56
2023/04/13 09:38:15;;;;;;;4.87;1.20;;;10.70;99.90;;;;;;7306208;32;20130;-56
2023/04/13 09:42:18;;;;;;;5.32;1.17;;;10.70;99.90;;;;;;7301543;32;20497;-56
2023/04/13 09:46:20;;;;;;;8.13;1.20;;;10.70;99.90;;;;;;7306943;32;20242;-56
2023/04/13 09:50:25;;;;;;;7.57;1.37;;;10.50;99.90;;;;;;7307688;32;20156;-56
2023/04/13 09:54:27;;;;;;;9.88;1.60;;;10.30;99.90;;;;;;7307658;32;20208;-56
2023/04/13 09:58:30;;;;;;;6.18;1.52;;;10.30;99.90;;;;;;7307873;32;20112;-56
2023/04/13 10:02:32;;;;;;;7.12;1.35;;;10.00;99.90;;;;;;7306566;32;20526;-57
2023/04/13 10:06:39;;;;;;;6.68;1.62;;;10.00;99.90;;;;;;7302493;32;20213;-57
2023/04/13 10:10:41;;;;;;;11.07;1.80;;;10.10;99.90;;;;;;7306942;32;20167;-57
2023/04/13 10:14:47;;;;;;;11.05;2.75;;;10.30;99.90;;;;;;7310632;32;20126;-57
2023/04/13 10:19:07;;;;;;;9.87;2.20;;;10.40;99.90;;;;;;7308429;32;20206;-58
2023/04/13 10:23:09;;;;;;;8.20;1.90;;;10.50;99.90;;;;;;7307937;32;20191;-57
2023/04/13 10:27:17;;;;;;;16.75;2.53;;;10.50;99.90;;;;;;7302578;32;20168;-57
2023/04/13 10:31:18;;;;;;;10.18;1.85;;;10.30;99.90;;;;;;7303992;32;20206;-57
2023/04/13 10:35:20;;;;;;;8.57;2.03;;;10.30;99.90;;;;;;7304928;32;20620;-57
2023/04/13 10:39:26;;;;;;;12.68;2.72;;;10.50;99.90;;;;;;7306940;32;20814;-56
2023/04/13 10:43:30;;;;;;;13.67;2.37;;;10.60;99.90;;;;;;7310840;32;20217;-56
2023/04/13 10:47:36;;;;;;;9.23;2.15;;;10.50;99.90;;;;;;7310972;32;20529;-57
2023/04/13 10:51:42;;;;;;;14.50;2.28;;;10.40;99.90;;;;;;7300572;32;20239;-56
2023/04/13 10:55:44;;;;;;;10.60;2.35;;;10.50;99.90;;;;;;7311678;32;20412;-57
2023/04/13 10:59:48;;;;;;;10.13;2.08;;;10.60;99.90;;;;;;7307733;32;20134;-56
2023/04/13 11:04:04;;;;;;;11.35;2.03;;;10.70;99.90;;;;;;7310998;32;20099;-56
2023/04/13 11:08:19;;;;;;;7.90;2.10;;;11.00;99.90;;;;;;7307751;32;20108;-56
2023/04/13 11:12:21;;;;;;;9.73;1.95;;;11.60;99.90;;;;;;7312459;32;20171;-56
2023/04/13 11:16:23;;;;;;;8.27;1.67;;;12.10;99.90;;;;;;7323726;32;20111;-58
2023/04/13 11:20:32;;;;;;;8.60;1.73;;;12.30;99.90;;;;;;7297741;32;20203;-57
2023/04/13 11:24:34;;;;;;;9.45;1.85;;;12.10;99.90;;;;;;7306000;32;20632;-57
2023/04/13 11:28:39;;;;;;;9.95;1.70;;;11.80;99.90;;;;;;7316368;32;20165;-59
2023/04/13 11:32:44;;;;;;;8.40;1.75;;;11.50;99.90;;;;;;7301554;32;20231;-61
2023/04/13 11:36:48;;;;;;;9.93;2.00;;;11.70;99.90;;;;;;7306472;32;20214;-59
2023/04/13 11:40:51;;;;;;;13.18;1.90;;;12.10;99.90;;;;;;7303463;32;20346;-60
2023/04/13 11:45:10;;;;;;;9.35;1.73;;;12.40;99.90;;;;;;7301248;32;20186;-60
2023/04/13 11:49:11;;;;;;;10.05;1.77;;;12.60;99.90;;;;;;7303937;32;20136;-59
2023/04/13 11:53:14;;;;;;;7.85;1.45;;;12.70;99.90;;;;;;7305447;32;20116;-60
2023/04/13 11:57:17;;;;;;;8.50;1.58;;;13.10;99.90;;;;;;7307359;32;20136;-58
2023/04/13 12:01:21;;;;;;;10.32;2.40;;;13.30;99.90;;;;;;7307456;32;20218;-57
2023/04/13 12:05:31;;;;;;;7.90;1.30;;;12.80;99.90;;;;;;7297378;32;20171;-58
2023/04/13 12:09:45;;;;;;;9.63;2.08;;;12.40;99.90;;;;;;7300270;32;20150;-58
2023/04/13 12:13:52;;;;;;;6.78;1.60;;;12.20;99.90;;;;;;7299085;32;20600;-57
2023/04/13 12:18:12;;;;;;;8.52;1.60;;;12.40;99.90;;;;;;7303023;32;20108;-58
2023/04/13 12:22:18;;;;;;;13.23;1.83;;;13.30;99.90;;;;;;7302580;32;20890;-57
2023/04/13 12:26:24;;;;;;;6.00;1.27;;;14.40;99.90;;;;;;7293182;32;20134;-58
2023/04/13 12:30:46;;;;;;;15.48;2.10;;;16.30;99.90;;;;;;7296967;32;20147;-57
2023/04/13 12:34:48;;;;;;;8.05;1.85;;;16.00;99.90;;;;;;7306154;32;20510;-58
2023/04/13 12:38:49;;;;;;;8.00;1.65;;;15.00;99.90;;;;;;7306728;32;20240;-58
2023/04/13 12:42:51;;;;;;;7.37;1.80;;;14.20;99.90;;;;;;7296810;32;20234;-58
2023/04/13 12:46:53;;;;;;;8.38;1.67;;;15.20;99.90;;;;;;7301743;32;20137;-57
2023/04/13 12:50:55;;;;;;;7.57;1.87;;;15.60;99.90;;;;;;7306194;32;20337;-57
2023/04/13 12:55:01;;;;;;;10.77;2.15;;;14.30;99.90;;;;;;7300626;32;20163;-58
2023/04/13 12:59:03;;;;;;;10.75;2.30;;;14.10;99.90;;;;;;7305990;32;20142;-58
2023/04/13 13:03:05;;;;;;;7.95;1.95;;;14.00;99.90;;;;;;7303450;32;20108;-57
2023/04/13 13:07:15;;;;;;;11.50;1.65;;;15.90;99.90;;;;;;7299626;32;20099;-58
2023/04/13 13:11:17;;;;;;;6.05;1.55;;;17.80;99.20;;;;;;7307682;32;20540;-57
2023/04/13 13:15:19;;;;;;;8.65;1.30;;;18.40;91.50;;;;;;7299867;32;20228;-58
2023/04/13 13:19:21;;;;;;;5.53;1.20;;;19.30;87.30;;;;;;7298495;32;20615;-57
2023/04/13 13:23:22;;;;;;;8.75;1.33;;;19.00;87.60;;;;;;7307551;32;20158;-57
2023/04/13 13:27:24;;;;;;;6.53;1.40;;;18.30;85.10;;;;;;7301905;32;20176;-58
2023/04/13 13:31:29;;;;;;;9.02;1.60;;;17.40;86.40;;;;;;7295294;32;20679;-58
2023/04/13 13:35:32;;;;;;;6.70;1.40;;;17.20;90.80;;;;;;7301305;32;20139;-57
2023/04/13 13:39:34;;;;;;;8.63;1.85;;;16.40;91.80;;;;;;7305612;32;20175;-57
2023/04/13 13:43:37;;;;;;;7.18;1.58;;;15.50;92.90;;;;;;7305008;32;20392;-57
2023/04/13 13:47:38;;;;;;;9.95;1.80;;;14.50;93.50;;;;;;7297335;32;20113;-56
2023/04/13 13:51:41;;;;;;;7.45;1.62;;;14.10;98.00;;;;;;7305544;32;20143;-57
2023/04/13 13:55:42;;;;;;;9.23;1.55;;;15.50;94.80;;;;;;7302123;32;20419;-57
2023/04/13 13:59:44;;;;;;;5.90;1.23;;;17.40;92.20;;;;;;7296907;32;20139;-57
2023/04/13 14:03:50;;;;;;;8.73;1.70;;;17.80;86.00;;;;;;7302456;32;20104;-56
2023/04/13 14:07:51;;;;;;;9.15;1.65;;;18.00;83.50;;;;;;7293738;32;20115;-58
2023/04/13 14:11:54;;;;;;;6.53;1.50;;;18.70;84.30;;;;;;7301524;32;20596;-57
2023/04/13 14:15:56;;;;;;;5.07;1.00;;;20.00;76.50;;;;;;7297356;32;20131;-57
2023/04/13 14:19:58;;;;;;;5.37;1.20;;;19.50;69.90;;;;;;7300873;32;20405;-58
2023/04/13 14:23:59;;;;;;;8.75;1.75;;;18.50;74.30;;;;;;7299845;32;20562;-57
2023/04/13 14:28:01;;;;;;;7.80;1.42;;;18.30;74.40;;;;;;7295295;32;20126;-57
2023/04/13 14:32:03;;;;;;;9.85;1.55;;;17.40;78.60;;;;;;7303620;32;20104;-57
2023/04/13 14:36:05;;;;;;;10.00;1.77;;;16.80;83.30;;;;;;7319310;32;20463;-58
2023/04/13 14:40:13;;;;;;;4.70;1.15;;;17.50;80.30;;;;;;7305740;32;20720;-58
2023/04/13 14:44:15;;;;;;;4.93;1.42;;;17.60;75.60;;;;;;7301897;32;20111;-57
2023/04/13 14:48:16;;;;;;;6.32;1.50;;;17.50;71.60;;;;;;7307659;32;20446;-57
2023/04/13 14:52:18;;;;;;;9.45;2.30;;;17.20;71.70;;;;;;7305491;32;20783;-57
2023/04/13 14:56:20;;;;;;;5.65;1.60;;;16.60;72.80;;;;;;7310901;32;20267;-57
2023/04/13 15:00:37;;;;;;;6.43;1.33;;;16.50;75.80;;;;;;7303504;32;20147;-57
2023/04/13 15:04:41;;;;;;;5.00;1.10;;;15.90;75.80;;;;;;7300068;32;20119;-57
2023/04/13 15:08:44;;;;;;;6.70;1.30;;;15.40;81.90;;;;;;7298300;32;20430;-56
2023/04/13 15:12:46;;;;;;;4.07;0.90;;;15.40;82.00;;;;;;7307598;32;20701;-56
2023/04/13 15:16:48;;;;;;;5.45;1.25;;;15.40;81.80;;;;;;7310873;32;20209;-57
2023/04/13 15:20:50;;;;;;;5.97;0.98;;;15.40;84.80;;;;;;7302973;32;20214;-56
2023/04/13 15:24:52;;;;;;;5.97;1.60;;;15.40;85.10;;;;;;7300349;32;20222;-57
2023/04/13 15:28:54;;;;;;;7.62;1.83;;;14.90;83.60;;;;;;7304491;32;20544;-57
2023/04/13 15:32:58;;;;;;;6.47;1.37;;;14.40;82.70;;;;;;7321833;32;20424;-57
2023/04/13 15:37:00;;;;;;;8.13;1.35;;;14.00;88.60;;;;;;7308351;32;20242;-57
2023/04/13 15:41:02;;;;;;;7.00;1.27;;;13.80;86.70;;;;;;7319167;32;20876;-59
2023/04/13 15:45:05;;;;;;;10.20;1.48;;;13.70;90.70;;;;;;7315340;32;20140;-57
2023/04/13 15:49:07;;;;;;;6.28;1.40;;;13.80;91.60;;;;;;7310355;32;20107;-57
2023/04/13 15:53:09;;;;;;;7.00;1.08;;;14.00;90.40;;;;;;7313393;32;20126;-57
2023/04/13 15:57:11;;;;;;;5.20;1.08;;;14.00;90.60;;;;;;7313289;32;20284;-58
2023/04/13 16:01:13;;;;;;;4.60;1.17;;;13.70;87.70;;;;;;7309795;32;20277;-57
2023/04/13 16:05:15;;;;;;;7.12;1.25;;;13.60;89.60;;;;;;7321278;32;20189;-57
2023/04/13 16:09:17;;;;;;;9.77;1.50;;;13.60;89.50;;;;;;7309969;32;20187;-57
2023/04/13 16:13:19;;;;;;;6.43;1.25;;;13.60;87.30;;;;;;7311002;32;20544;-57
2023/04/13 16:17:29;;;;;;;5.45;1.40;;;13.70;88.40;;;;;;7307067;32;20717;-58
2023/04/13 16:21:31;;;;;;;9.30;1.40;;;13.60;88.70;;;;;;7302871;32;20802;-57
2023/04/13 16:25:33;;;;;;;6.90;1.70;;;13.60;90.60;;;;;;7301339;32;20132;-57
2023/04/13 16:29:35;;;;;;;6.00;1.27;;;13.80;89.20;;;;;;7308337;32;20170;-57
2023/04/13 16:33:37;;;;;;;6.32;1.17;;;13.70;90.00;;;;;;7308197;32;21450;-58
2023/04/13 16:37:43;;;;;;;6.05;1.40;;;13.60;89.30;;;;;;7306592;32;20123;-57
2023/04/13 16:41:45;;;;;;;7.25;1.45;;;13.50;89.10;;;;;;7298966;32;20108;-58
2023/04/13 16:45:47;;;;;;;5.72;1.48;;;13.60;88.90;;;;;;7311717;32;20173;-57
2023/04/13 16:49:49;;;;;;;10.48;2.12;;;13.50;88.70;;;;;;7316164;32;20111;-57
2023/04/13 16:53:52;;;;;;;9.52;1.60;;;13.50;86.80;;;;;;7299149;32;20116;-57
2023/04/13 16:57:54;;;;;;;5.90;1.58;;;13.60;85.00;;;;;;7304894;32;20824;-58
2023/04/13 17:01:55;;;;;;;5.00;1.15;;;13.60;87.30;;;;;;7294779;32;22078;-57
2023/04/13 17:05:57;;;;;;;9.98;1.40;;;13.50;86.50;;;;;;7300555;32;20138;-57
2023/04/13 17:09:59;;;;;;;7.47;1.27;;;13.40;86.00;;;;;;7290933;32;20177;-58
2023/04/13 17:14:01;;;;;;;3.12;1.08;;;13.20;85.80;;;;;;7310364;32;20241;-58
2023/04/13 17:18:03;;;;;;;7.00;1.23;;;13.10;89.70;;;;;;7301649;32;20112;-58
2023/04/13 17:22:04;;;;;;;5.70;1.42;;;13.00;90.60;;;;;;7307141;32;20137;-58
2023/04/13 17:26:06;;;;;;;5.75;1.30;;;13.00;89.20;;;;;;7293378;32;20826;-59
2023/04/13 17:30:08;;;;;;;7.25;1.23;;;13.00;89.40;;;;;;7297899;32;20138;-58
2023/04/13 17:34:10;;;;;;;5.95;1.10;;;13.00;88.20;;;;;;7298018;32;20471;-57
2023/04/13 17:38:12;;;;;;;6.03;1.10;;;13.00;90.00;;;;;;7301023;32;20544;-56
2023/04/13 17:42:14;;;;;;;5.78;0.95;;;13.00;87.50;;;;;;7307082;32;20165;-56
2023/04/13 17:46:16;;;;;;;7.80;1.33;;;13.00;91.00;;;;;;7299204;32;20104;-56
2023/04/13 17:50:17;;;;;;;6.40;1.10;;;13.10;89.60;;;;;;7300317;32;20123;-57
2023/04/13 17:54:19;;;;;;;6.18;1.17;;;13.20;91.00;;;;;;7294438;32;20676;-57
2023/04/13 17:58:21;;;;;;;5.07;1.10;;;13.10;90.50;;;;;;7300982;32;20210;-57
2023/04/13 18:02:22;;;;;;;6.43;1.08;;;12.90;86.10;;;;;;7310428;32;20254;-58
2023/04/13 18:06:26;;;;;;;4.75;1.30;;;12.70;88.60;;;;;;7306662;32;20111;-57
2023/04/13 18:10:27;;;;;;;5.78;1.40;;;12.40;89.20;;;;;;7304975;32;20648;-58
2023/04/13 18:14:29;;;;;;;4.82;1.15;;;12.20;87.60;;;;;;7303027;32;20135;-57
2023/04/13 18:18:31;;;;;;;5.22;1.02;;;11.90;88.20;;;;;;7309407;32;20250;-58
2023/04/13 18:22:33;;;;;;;4.15;1.23;;;11.60;90.50;;;;;;7309701;32;20165;-57
2023/04/13 18:26:35;;;;;;;4.68;1.20;;;11.40;90.10;;;;;;7301805;32;20269;-57
2023/04/13 18:30:37;;;;;;;7.53;1.23;;;11.20;90.80;;;;;;7298363;32;20910;-59
2023/04/13 18:34:41;;;;;;;7.30;1.00;;;10.80;92.80;;;;;;7298036;32;20133;-57
2023/04/13 18:38:44;;;;;;;6.28;1.23;;;10.50;95.10;;;;;;7291820;32;20252;-56
2023/04/13 18:42:48;;;;;;;2.58;1.17;;;10.20;98.10;;;;;;7305147;32;20142;-55
2023/04/13 18:46:50;;;;;;;5.32;1.40;;;9.90;99.90;;;;;;7305118;32;20517;-57
2023/04/13 18:50:52;;;;;;;4.90;1.73;;;9.50;99.90;;;;;;7303455;32;20202;-57
2023/04/13 18:54:54;;;;;;;8.02;1.50;;;9.20;99.90;;;;;;7312810;32;20531;-57
2023/04/13 18:58:55;;;;;;;4.55;1.73;;;9.00;99.90;;;;;;7306460;32;20614;-57
2023/04/13 19:02:57;;;;;;;3.67;1.27;;;8.70;99.90;;;;;;7298861;32;20199;-57
2023/04/13 19:06:59;;;;;;;5.12;1.48;;;8.50;99.90;;;;;;7303866;32;20709;-57
2023/04/13 19:11:01;;;;;;;5.53;1.10;;;8.30;99.90;;;;;;7306945;32;20215;-57
2023/04/13 19:15:03;;;;;;;10.15;1.73;;;8.00;99.90;;;;;;7309624;32;20309;-56
2023/04/13 19:19:04;;;;;;;4.32;1.67;;;7.90;99.90;;;;;;7307488;32;20103;-55
2023/04/13 19:23:06;;;;;;;4.50;1.27;;;7.70;99.90;;;;;;7309024;32;20796;-56
2023/04/13 19:27:08;;;;;;;5.68;1.20;;;7.50;99.90;;;;;;7297581;32;20194;-55
2023/04/13 19:31:10;;;;;;;7.05;1.67;;;7.30;99.90;;;;;;7302198;32;20279;-56
2023/04/13 19:35:12;;;;;;;5.37;1.55;;;7.20;99.90;;;;;;7309955;32;20103;-56
2023/04/13 19:39:14;;;;;;;5.43;1.20;;;7.10;99.90;;;;;;7298702;32;20235;-56
2023/04/13 19:43:19;;;;;;;3.62;1.25;;;7.00;99.90;;;;;;7307163;32;20127;-55
2023/04/13 19:47:21;;;;;;;7.32;1.33;;;6.90;99.90;;;;;;7304744;32;21173;-56
2023/04/13 19:51:30;;;;;;;8.35;1.50;;;6.70;99.90;;;;;;7303299;32;20500;-56
2023/04/13 19:55:32;;;;;;;5.57;1.30;;;6.60;99.90;;;;;;7297478;32;20277;-56
2023/04/13 19:59:34;;;;;;;4.97;1.30;;;6.50;99.90;;;;;;7306910;32;20163;-56
2023/04/13 20:03:35;;;;;;;6.57;1.50;;;6.40;99.90;;;;;;7312227;32;20134;-56
2023/04/13 20:07:37;;;;;;;7.05;1.08;;;6.30;99.90;;;;;;7302397;32;20193;-56
2023/04/13 20:11:40;;;;;;;5.72;1.40;;;6.20;99.90;;;;;;7312895;32;20224;-56
2023/04/13 20:15:42;;;;;;;8.82;1.37;;;6.10;99.90;;;;;;7304379;32;20266;-57
2023/04/13 20:19:44;;;;;;;6.10;1.35;;;6.00;99.90;;;;;;7294593;32;20182;-56
2023/04/13 20:23:46;;;;;;;6.62;1.27;;;5.90;99.90;;;;;;7305835;32;20213;-56
2023/04/13 20:27:47;;;;;;;4.18;1.10;;;5.90;99.90;;;;;;7300195;32;20194;-56
2023/04/13 20:31:49;;;;;;;4.90;1.00;;;5.70;99.90;;;;;;7305007;32;20266;-55
2023/04/13 20:35:52;;;;;;;4.62;1.27;;;5.70;99.90;;;;;;7295332;32;20253;-56
2023/04/13 20:39:54;;;;;;;7.28;1.30;;;5.60;99.90;;;;;;7305571;32;20115;-56
2023/04/13 20:43:57;;;;;;;7.07;1.45;;;5.50;99.90;;;;;;7298824;32;20373;-56
2023/04/13 20:48:00;;;;;;;6.35;1.33;;;5.50;99.90;;;;;;7301246;32;20170;-56
2023/04/13 20:52:23;;;;;;;4.43;1.40;;;5.50;99.90;;;;;;7305620;32;20217;-56
2023/04/13 20:56:25;;;;;;;7.95;1.75;;;5.40;99.90;;;;;;7304246;32;20706;-56
2023/04/13 21:00:27;;;;;;;4.28;1.12;;;5.40;99.90;;;;;;7296323;32;20151;-56
2023/04/13 21:04:29;;;;;;;7.00;1.87;;;5.40;99.90;;;;;;7306464;32;20864;-55
2023/04/13 21:08:31;;;;;;;6.75;1.62;;;5.40;99.90;;;;;;7295586;32;20100;-55
2023/04/13 21:12:32;;;;;;;10.48;1.40;;;5.50;99.90;;;;;;7306157;32;20130;-56
2023/04/13 21:16:34;;;;;;;9.93;1.73;;;5.70;99.90;;;;;;7304922;32;20166;-55